createdAt,value
2018-03-07T00:02:23.420Z,53.22
2018-03-07T00:04:50.868Z,53.83
2018-03-07T00:07:18.317Z,49.17
2018-03-07T00:09:45.760Z,49.40
2018-03-07T00:12:13.221Z,50.92
2018-03-07T00:14:40.655Z,46.53
2018-03-07T00:17:08.868Z,47.33
2018-03-07T00:19:36.341Z,45.35
2018-03-07T00:22:04.567Z,47.45
2018-03-07T00:24:32.004Z,49.65
2018-03-07T00:26:59.470Z,51.27
2018-03-07T00:29:26.913Z,48.92
2018-03-07T00:31:54.362Z,48.35
2018-03-07T00:34:22.580Z,48.27
2018-03-07T00:36:50.028Z,46.60
2018-03-07T00:39:17.476Z,49.20
2018-03-07T00:41:44.931Z,48.83
2018-03-07T00:44:12.386Z,46.63
2018-03-07T00:46:40.604Z,45.88
2018-03-07T00:49:08.036Z,46.13
2018-03-07T00:51:35.496Z,44.25
2018-03-07T00:54:02.938Z,46.15
2018-03-07T00:56:31.204Z,44.38
2018-03-07T00:58:58.646Z,44.87
2018-03-07T01:01:26.140Z,45.72
2018-03-07T01:03:53.578Z,41.30
2018-03-07T01:06:21.032Z,42.97
2018-03-07T01:08:48.471Z,40.60
2018-03-07T01:11:15.926Z,40.78
2018-03-07T01:13:43.375Z,40.38
2018-03-07T01:16:10.820Z,39.85
2018-03-07T01:18:38.263Z,40.30
2018-03-07T01:21:05.720Z,38.63
2018-03-07T01:23:33.928Z,39.90
2018-03-07T01:26:02.151Z,39.38
2018-03-07T01:28:29.594Z,38.40
2018-03-07T01:30:57.051Z,39.20
2018-03-07T01:33:24.497Z,41.50
2018-03-07T01:35:51.944Z,38.50
2018-03-07T01:38:20.156Z,40.83
2018-03-07T01:40:48.389Z,40.30
2018-03-07T01:43:15.829Z,36.88
2018-03-07T01:45:44.052Z,37.47
2018-03-07T01:48:11.488Z,38.07
2018-03-07T01:50:38.944Z,38.72
2018-03-07T01:53:06.382Z,37.10
2018-03-07T01:55:33.828Z,38.90
2018-03-07T01:58:01.278Z,34.63
2018-03-07T02:00:28.716Z,32.10
2018-03-07T02:02:56.168Z,31.10
2018-03-07T02:05:28.836Z,31.58
2018-03-07T02:27:54.819Z,27.20
2018-03-07T02:30:22.268Z,28.70
2018-03-07T02:32:49.717Z,28.50
2018-03-07T02:35:17.924Z,28.20
2018-03-07T02:37:46.131Z,28.23
2018-03-07T02:40:13.568Z,26.93
2018-03-07T02:42:41.039Z,25.95
2018-03-07T02:45:08.484Z,26.23
2018-03-07T02:47:36.683Z,26.05
2018-03-07T02:50:04.137Z,24.63
2018-03-07T02:52:32.365Z,25.48
2018-03-07T02:54:59.836Z,25.20
2018-03-07T02:57:27.284Z,24.77
2018-03-07T02:59:54.721Z,24.52
2018-03-07T03:02:22.173Z,23.35
2018-03-07T03:04:50.377Z,24.45
2018-03-07T03:07:17.842Z,24.02
2018-03-07T03:09:46.052Z,24.33
2018-03-07T03:12:13.514Z,24.67
2018-03-07T03:14:40.943Z,24.03
2018-03-07T03:17:08.392Z,24.65
2018-03-07T03:19:35.843Z,25.90
2018-03-07T03:22:03.294Z,24.70
2018-03-07T03:24:30.805Z,25.42
2018-03-07T03:26:58.236Z,25.40
2018-03-07T03:29:25.684Z,24.73
2018-03-07T03:31:53.896Z,25.30
2018-03-07T03:34:21.373Z,25.00
2018-03-07T03:36:49.576Z,25.30
2018-03-07T03:39:17.020Z,24.53
2018-03-07T03:41:44.476Z,24.15
2018-03-07T03:44:11.916Z,24.30
2018-03-07T03:46:40.119Z,25.27
2018-03-07T03:49:07.560Z,25.40
2018-03-07T03:51:35.028Z,24.67
2018-03-07T03:54:02.472Z,25.77
2018-03-07T03:56:29.919Z,24.70
2018-03-07T03:58:58.132Z,25.45
2018-03-07T04:01:25.600Z,24.92
2018-03-07T04:03:53.808Z,24.48
2018-03-07T04:06:22.031Z,24.33
2018-03-07T04:08:49.468Z,24.30
2018-03-07T04:11:17.672Z,24.12
2018-03-07T04:13:45.877Z,24.30
2018-03-07T04:16:14.091Z,24.40
2018-03-07T04:18:41.541Z,23.90
2018-03-07T04:21:08.976Z,22.55
2018-03-07T04:23:36.435Z,23.00
2018-03-07T04:26:03.867Z,23.38
2018-03-07T04:28:31.317Z,23.25
2018-03-07T04:30:58.768Z,23.12
2018-03-07T04:33:26.991Z,22.30
2018-03-07T04:35:54.428Z,22.95
2018-03-07T04:38:21.879Z,22.73
2018-03-07T04:40:49.332Z,22.48
2018-03-07T04:43:16.775Z,21.77
2018-03-07T04:45:44.988Z,21.77
2018-03-07T04:48:12.426Z,21.50
2018-03-07T04:50:39.884Z,20.85
2018-03-07T04:53:07.324Z,20.35
2018-03-07T04:55:35.551Z,21.70
2018-03-07T04:58:02.999Z,21.75
2018-03-07T05:00:31.907Z,20.37
2018-03-07T05:03:00.123Z,20.50
2018-03-07T05:05:28.315Z,19.77
2018-03-07T05:07:55.768Z,20.67
2018-03-07T05:10:23.217Z,20.62
2018-03-07T05:12:50.657Z,20.77
2018-03-07T05:15:18.875Z,20.17
2018-03-07T05:17:46.315Z,20.65
2018-03-07T05:20:14.524Z,20.30
2018-03-07T05:22:42.740Z,19.80
2018-03-07T05:25:10.189Z,20.08
2018-03-07T05:27:37.625Z,20.48
2018-03-07T05:30:05.113Z,21.60
2018-03-07T05:32:33.290Z,22.35
2018-03-07T05:35:00.737Z,20.55
2018-03-07T05:37:28.958Z,19.98
2018-03-07T05:39:57.172Z,19.37
2018-03-07T05:42:24.615Z,20.60
2018-03-07T05:44:52.071Z,20.05
2018-03-07T05:47:19.516Z,20.88
2018-03-07T05:49:46.963Z,20.10
2018-03-07T05:52:15.173Z,21.15
2018-03-07T05:54:43.385Z,20.15
2018-03-07T05:57:10.885Z,20.65
2018-03-07T05:59:38.346Z,19.70
2018-03-07T06:02:05.779Z,20.13
2018-03-07T06:04:33.236Z,20.30
2018-03-07T06:07:00.677Z,20.48
2018-03-07T06:09:28.888Z,20.10
2018-03-07T06:11:56.319Z,20.00
2018-03-07T06:14:23.804Z,19.17
2018-03-07T06:16:51.207Z,18.75
2018-03-07T06:19:19.403Z,18.20
2018-03-07T06:21:47.616Z,18.63
2018-03-07T06:24:15.820Z,18.05
2018-03-07T06:26:43.275Z,18.37
2018-03-07T06:29:10.716Z,17.37
2018-03-07T06:31:38.161Z,17.40
2018-03-07T06:34:06.372Z,17.80
2018-03-07T06:36:33.827Z,17.80
2018-03-07T06:39:02.042Z,18.35
2018-03-07T06:41:29.484Z,16.83
2018-03-07T06:43:56.926Z,17.57
2018-03-07T06:46:24.385Z,18.05
2018-03-07T06:48:52.580Z,17.42
2018-03-07T06:51:20.036Z,16.92
2018-03-07T06:53:47.473Z,16.58
2018-03-07T06:56:14.932Z,16.75
2018-03-07T06:58:42.385Z,16.67
2018-03-07T07:01:09.830Z,16.90
2018-03-07T07:03:37.277Z,17.05
2018-03-07T07:06:04.734Z,17.08
2018-03-07T07:08:32.950Z,16.50
2018-03-07T07:11:00.439Z,16.83
2018-03-07T07:13:27.860Z,17.12
2018-03-07T07:15:55.303Z,17.33
2018-03-07T07:18:22.748Z,16.67
2018-03-07T07:20:50.963Z,15.65
2018-03-07T07:23:18.408Z,15.13
2018-03-07T07:25:45.862Z,16.27
2018-03-07T07:28:13.296Z,16.25
2018-03-07T07:30:41.517Z,17.00
2018-03-07T07:33:08.953Z,17.00
2018-03-07T07:35:36.408Z,16.08
2018-03-07T07:38:03.844Z,16.20
2018-03-07T07:40:32.011Z,16.87
2018-03-07T07:42:59.463Z,17.80
2018-03-07T07:45:26.915Z,16.02
2018-03-07T07:47:54.366Z,16.47
2018-03-07T07:50:21.815Z,17.02
2018-03-07T07:52:49.248Z,16.50
2018-03-07T07:55:16.700Z,16.17
2018-03-07T07:57:44.164Z,15.88
2018-03-07T08:00:11.594Z,15.80
2018-03-07T08:02:39.028Z,16.20
2018-03-07T08:05:06.492Z,15.93
2018-03-07T08:07:33.935Z,14.60
2018-03-07T08:10:01.372Z,15.18
2018-03-07T08:12:28.817Z,14.60
2018-03-07T08:14:56.252Z,12.60
2018-03-07T08:17:24.465Z,14.25
2018-03-07T08:19:52.672Z,13.98
2018-03-07T08:22:20.137Z,13.40
2018-03-07T08:24:48.345Z,13.13
2018-03-07T08:27:16.563Z,12.27
2018-03-07T08:29:43.995Z,12.98
2018-03-07T08:32:11.900Z,13.32
2018-03-07T08:34:40.110Z,13.43
2018-03-07T08:37:08.339Z,12.30
2018-03-07T08:39:35.776Z,11.90
2018-03-07T08:42:03.228Z,11.65
2018-03-07T08:44:30.675Z,12.10
2018-03-07T08:46:58.124Z,11.80
2018-03-07T08:49:26.328Z,11.07
2018-03-07T08:51:53.800Z,10.60
2018-03-07T08:54:22.016Z,11.65
2018-03-07T08:56:50.235Z,10.90
2018-03-07T08:59:17.673Z,10.80
2018-03-07T09:01:45.205Z,10.35
2018-03-07T09:04:12.652Z,10.15
2018-03-07T09:06:40.879Z,10.68
2018-03-07T09:09:08.326Z,10.93
2018-03-07T09:11:36.537Z,10.15
2018-03-07T09:14:04.744Z,10.05
2018-03-07T09:16:32.196Z,10.70
2018-03-07T09:18:59.636Z,9.63
2018-03-07T09:21:27.094Z,8.32
2018-03-07T09:23:54.555Z,9.50
2018-03-07T09:26:22.747Z,9.33
2018-03-07T09:28:50.970Z,8.40
2018-03-07T09:31:18.388Z,8.50
2018-03-07T09:33:45.835Z,8.80
2018-03-07T09:36:13.264Z,7.80
2018-03-07T09:38:40.704Z,8.15
2018-03-07T09:41:08.151Z,8.27
2018-03-07T09:43:36.360Z,8.15
2018-03-07T09:46:03.796Z,7.03
2018-03-07T09:48:31.232Z,7.87
2018-03-07T09:50:58.661Z,7.70
2018-03-07T09:53:26.096Z,7.35
2018-03-07T09:55:53.535Z,7.10
2018-03-07T09:58:20.971Z,6.25
2018-03-07T10:00:48.411Z,6.40
2018-03-07T10:03:16.620Z,8.63
2018-03-07T10:05:44.815Z,7.28
2018-03-07T10:08:13.017Z,6.90
2018-03-07T10:10:40.452Z,6.55
2018-03-07T10:13:07.895Z,5.72
2018-03-07T10:15:35.328Z,6.30
2018-03-07T10:18:02.768Z,4.80
2018-03-07T10:20:30.212Z,5.80
2018-03-07T10:22:58.431Z,5.97
2018-03-07T10:25:25.882Z,6.20
2018-03-07T10:27:54.094Z,5.60
2018-03-07T10:30:22.300Z,5.20
2018-03-07T10:32:49.747Z,4.03
2018-03-07T10:35:17.213Z,3.90
2018-03-07T10:37:44.638Z,4.45
2018-03-07T10:40:12.880Z,4.30
2018-03-07T10:42:41.047Z,4.65
2018-03-07T10:45:08.491Z,4.00
2018-03-07T10:47:35.919Z,3.92
2018-03-07T10:50:03.370Z,4.00
2018-03-07T10:52:31.569Z,3.58
2018-03-07T10:54:59.779Z,2.35
2018-03-07T10:57:27.221Z,2.50
2018-03-07T10:59:54.668Z,2.60
2018-03-07T11:02:22.104Z,2.37
2018-03-07T11:04:50.306Z,2.70
2018-03-07T11:07:18.513Z,2.75
2018-03-07T11:09:46.720Z,2.80
2018-03-07T11:12:14.161Z,2.80
2018-03-07T11:14:42.415Z,2.80
2018-03-07T11:17:09.993Z,3.15
2018-03-07T11:19:37.428Z,2.70
2018-03-07T11:22:04.868Z,2.70
2018-03-07T11:24:32.303Z,2.73
2018-03-07T11:27:00.512Z,1.90
2018-03-07T11:29:28.747Z,2.40
2018-03-07T11:31:56.188Z,2.30
2018-03-07T11:34:24.414Z,1.70
2018-03-07T11:36:51.848Z,1.77
2018-03-07T11:39:19.288Z,1.50
2018-03-07T11:41:46.728Z,1.60
2018-03-07T11:44:14.928Z,1.70
2018-03-07T11:46:43.140Z,2.20
2018-03-07T11:49:10.568Z,1.77
2018-03-07T11:51:38.019Z,1.92
2018-03-07T11:54:05.455Z,2.15
2018-03-07T11:56:32.900Z,2.70
2018-03-07T11:59:00.342Z,2.22
2018-03-07T12:01:27.784Z,2.70
2018-03-07T12:03:55.232Z,2.35
2018-03-07T12:06:22.677Z,2.00
2018-03-07T12:08:50.872Z,1.87
2018-03-07T12:11:19.075Z,1.67
2018-03-07T12:13:46.511Z,1.20
2018-03-07T12:16:13.948Z,1.20
2018-03-07T12:18:41.391Z,0.95
2018-03-07T12:21:08.842Z,0.95
2018-03-07T12:23:36.273Z,0.90
2018-03-07T12:26:04.490Z,1.10
2018-03-07T12:28:32.688Z,1.10
2018-03-07T12:31:00.884Z,1.08
2018-03-07T12:33:29.092Z,1.70
2018-03-07T12:35:56.524Z,1.15
2018-03-07T12:38:23.964Z,1.20
2018-03-07T12:40:51.396Z,1.20
2018-03-07T12:43:18.939Z,1.30
2018-03-07T12:45:46.372Z,0.90
2018-03-07T12:48:14.580Z,1.50
2018-03-07T12:50:42.783Z,0.98
2018-03-07T12:53:10.988Z,0.80
2018-03-07T12:55:38.491Z,1.00
2018-03-07T12:58:05.926Z,1.20
2018-03-07T13:00:33.357Z,1.92
2018-03-07T13:03:00.839Z,1.52
2018-03-07T13:05:28.280Z,1.60
2018-03-07T13:07:56.489Z,1.50
2018-03-07T13:10:23.924Z,1.02
2018-03-07T13:12:51.477Z,1.00
2018-03-07T13:15:18.919Z,1.30
2018-03-07T13:17:47.166Z,1.20
2018-03-07T13:20:14.632Z,1.10
2018-03-07T13:22:42.086Z,1.00
2018-03-07T13:25:10.292Z,1.00
2018-03-07T13:27:38.495Z,0.97
2018-03-07T13:30:05.928Z,1.00
2018-03-07T13:32:33.360Z,1.00
2018-03-07T13:35:00.879Z,1.00
2018-03-07T13:37:28.339Z,0.90
2018-03-07T13:39:55.776Z,1.00
2018-03-07T13:42:24.012Z,1.00
2018-03-07T13:44:51.456Z,0.97
2018-03-07T13:47:19.656Z,1.00
2018-03-07T13:49:47.864Z,1.10
2018-03-07T13:52:16.067Z,0.90
2018-03-07T13:54:44.294Z,0.90
2018-03-07T13:57:11.739Z,1.25
2018-03-07T13:59:39.952Z,1.62
2018-03-07T14:02:07.452Z,1.42
2018-03-07T14:04:34.912Z,1.02
2018-03-07T14:07:03.127Z,0.90
2018-03-07T14:09:30.560Z,3.47
2018-03-07T14:11:58.013Z,1.30
2018-03-07T14:14:25.468Z,1.30
2018-03-07T14:16:52.902Z,2.00
2018-03-07T14:19:20.455Z,2.00
2018-03-07T14:21:48.055Z,1.65
2018-03-07T14:24:15.507Z,1.70
2018-03-07T14:26:42.952Z,1.80
2018-03-07T14:29:11.164Z,1.83
2018-03-07T14:31:39.372Z,2.50
2018-03-07T14:34:06.804Z,1.90
2018-03-07T14:36:34.252Z,2.30
2018-03-07T14:39:01.728Z,2.28
2018-03-07T14:41:29.172Z,2.40
2018-03-07T14:43:57.372Z,1.80
2018-03-07T14:46:25.608Z,1.90
2018-03-07T14:48:53.039Z,2.70
2018-03-07T14:51:20.492Z,2.00
2018-03-07T14:53:47.927Z,2.10
2018-03-07T14:56:15.428Z,1.50
2018-03-07T14:58:42.921Z,1.17
2018-03-07T15:01:10.382Z,1.27
2018-03-07T15:03:37.881Z,1.10
2018-03-07T15:06:05.369Z,1.30
2018-03-07T15:08:32.818Z,1.30
2018-03-07T15:11:00.337Z,1.52
2018-03-07T15:13:27.782Z,1.15
2018-03-07T15:15:55.291Z,1.40
2018-03-07T15:18:22.735Z,1.17
2018-03-07T15:20:50.964Z,1.00
2018-03-07T15:23:18.417Z,1.30
2018-03-07T15:25:46.647Z,1.40
2018-03-07T15:28:14.140Z,1.50
2018-03-07T15:30:41.604Z,1.10
2018-03-07T15:33:09.096Z,1.00
2018-03-07T15:35:36.544Z,1.20
2018-03-07T15:38:04.751Z,1.10
2018-03-07T15:40:32.248Z,0.90
2018-03-07T15:43:00.433Z,1.10
2018-03-07T15:45:28.662Z,1.00
2018-03-07T15:47:56.128Z,1.10
2018-03-07T15:50:23.573Z,0.90
2018-03-07T15:52:51.812Z,1.20
2018-03-07T15:55:19.294Z,1.40
2018-03-07T15:57:46.771Z,1.62
2018-03-07T16:00:14.251Z,3.00
2018-03-07T16:02:41.700Z,2.42
2018-03-07T16:05:09.918Z,2.00
2018-03-07T16:07:37.412Z,1.80
2018-03-07T16:10:04.852Z,1.40
2018-03-07T16:12:32.288Z,1.70
2018-03-07T16:14:59.772Z,1.90
2018-03-07T16:17:27.245Z,1.50
2018-03-07T16:19:54.672Z,1.77
2018-03-07T16:22:22.879Z,1.60
2018-03-07T16:24:51.080Z,1.60
2018-03-07T16:27:19.292Z,2.15
2018-03-07T16:29:46.727Z,2.12
2018-03-07T16:32:14.173Z,2.08
2018-03-07T16:34:41.596Z,2.58
2018-03-07T16:37:09.032Z,2.20
2018-03-07T16:39:36.478Z,1.80
2018-03-07T16:42:04.692Z,2.65
2018-03-07T16:44:32.127Z,2.00
2018-03-07T16:46:59.586Z,2.00
2018-03-07T16:49:27.012Z,1.90
2018-03-07T16:51:55.226Z,1.92
2018-03-07T16:54:23.425Z,2.30
2018-03-07T16:56:51.652Z,2.70
2018-03-07T16:59:19.072Z,2.00
2018-03-07T17:01:46.523Z,2.50
2018-03-07T17:04:13.998Z,1.95
2018-03-07T17:06:41.487Z,2.20
2018-03-07T17:09:08.964Z,2.30
2018-03-07T17:11:36.444Z,2.30
2018-03-07T17:14:03.867Z,3.50
2018-03-07T17:16:31.417Z,6.22
2018-03-07T17:18:58.844Z,4.60
2018-03-07T17:21:27.055Z,5.18
2018-03-07T17:23:54.493Z,9.13
2018-03-07T17:26:21.936Z,19.92
2018-03-07T17:28:49.399Z,11.65
2018-03-07T17:31:17.597Z,9.02
2018-03-07T17:33:45.037Z,5.35
2018-03-07T17:36:12.592Z,6.17
2018-03-07T17:38:40.041Z,4.82
2018-03-07T17:41:08.260Z,6.72
2018-03-07T17:43:35.692Z,5.93
2018-03-07T17:46:03.223Z,6.73
2018-03-07T17:48:30.663Z,7.07
2018-03-07T17:50:58.874Z,5.20
2018-03-07T17:53:27.097Z,4.60
2018-03-07T17:55:54.529Z,5.12
2018-03-07T17:58:22.739Z,5.30
2018-03-07T18:00:50.166Z,3.53
2018-03-07T18:03:17.626Z,3.78
2018-03-07T18:05:45.842Z,3.92
2018-03-07T18:08:13.288Z,3.03
2018-03-07T18:10:41.536Z,2.65
2018-03-07T18:13:08.980Z,2.20
2018-03-07T18:15:37.186Z,2.60
2018-03-07T18:18:05.384Z,3.40
2018-03-07T18:20:32.894Z,2.67
2018-03-07T18:23:00.332Z,4.10
2018-03-07T18:25:28.527Z,2.40
2018-03-07T18:27:56.746Z,2.97
2018-03-07T18:30:24.187Z,3.70
2018-03-07T18:32:51.635Z,2.80
2018-03-07T18:35:19.064Z,6.35
2018-03-07T18:37:47.272Z,5.33
2018-03-07T18:40:15.479Z,7.07
2018-03-07T18:42:43.680Z,6.68
2018-03-07T18:45:11.114Z,4.43
2018-03-07T18:47:38.573Z,3.80
2018-03-07T18:50:06.056Z,10.18
2018-03-07T18:52:33.483Z,3.83
2018-03-07T18:55:01.694Z,3.62
2018-03-07T18:57:29.910Z,4.45
2018-03-07T18:59:57.353Z,3.10
2018-03-07T19:02:24.795Z,4.15
2018-03-07T19:04:53.043Z,2.80
2018-03-07T19:07:21.260Z,2.80
2018-03-07T19:09:48.705Z,2.75
2018-03-07T19:12:17.648Z,2.10
2018-03-07T19:14:45.848Z,2.30
2018-03-07T19:17:14.079Z,1.80
2018-03-07T19:19:41.576Z,2.40
2018-03-07T19:22:09.023Z,4.72
2018-03-07T19:24:36.460Z,3.13
2018-03-07T19:27:03.903Z,2.60
2018-03-07T19:29:31.374Z,2.10
2018-03-07T19:31:59.553Z,4.50
2018-03-07T19:34:26.990Z,2.40
2018-03-07T19:36:54.437Z,4.25
2018-03-07T19:39:21.913Z,2.62
2018-03-07T19:41:49.360Z,2.00
2018-03-07T19:44:16.891Z,2.60
2018-03-07T19:46:44.370Z,2.08
2018-03-07T19:49:11.862Z,3.22
2018-03-07T19:51:39.298Z,2.75
2018-03-07T19:54:07.509Z,2.20
2018-03-07T19:56:34.948Z,1.80
2018-03-07T19:59:02.392Z,3.70
2018-03-07T20:01:29.832Z,1.60
2018-03-07T20:03:58.036Z,1.80
2018-03-07T20:06:26.251Z,1.95
2018-03-07T20:08:53.691Z,2.30
2018-03-07T20:11:21.126Z,2.10
2018-03-07T20:13:48.562Z,2.40
2018-03-07T20:16:15.999Z,1.90
2018-03-07T20:18:43.446Z,1.92
2018-03-07T20:21:10.879Z,1.60
2018-03-07T20:23:38.328Z,1.60
2018-03-07T20:26:05.764Z,1.70
2018-03-07T20:28:33.298Z,1.40
2018-03-07T20:31:00.744Z,1.30
2018-03-07T20:33:29.075Z,1.58
2018-03-07T20:35:56.504Z,1.70
2018-03-07T20:38:24.048Z,2.65
2018-03-07T20:40:51.519Z,2.78
2018-03-07T20:43:18.956Z,2.33
2018-03-07T20:45:47.157Z,2.20
2018-03-07T20:48:15.367Z,2.20
2018-03-07T20:50:43.565Z,1.92
2018-03-07T20:53:11.771Z,1.77
2018-03-07T20:55:39.206Z,1.60
2018-03-07T20:58:06.639Z,1.50
2018-03-07T21:00:34.067Z,1.40
2018-03-07T21:03:01.612Z,1.40
2018-03-07T21:05:29.049Z,1.50
2018-03-07T21:07:56.492Z,1.43
2018-03-07T21:10:23.935Z,4.03
2018-03-07T21:12:51.373Z,6.47
2018-03-07T21:15:18.824Z,8.20
2018-03-07T21:17:46.308Z,4.37
2018-03-07T21:20:13.744Z,6.95
2018-03-07T21:22:41.965Z,4.15
2018-03-07T21:25:09.470Z,3.00
2018-03-07T21:27:36.923Z,1.50
2018-03-07T21:30:04.357Z,1.20
2018-03-07T21:32:31.823Z,2.50
2018-03-07T21:34:59.264Z,2.40
2018-03-07T21:37:26.768Z,3.08
2018-03-07T21:39:54.223Z,3.10
2018-03-07T21:42:22.420Z,3.30
2018-03-07T21:44:50.657Z,6.25
2018-03-07T21:47:18.092Z,3.53
2018-03-07T21:49:46.292Z,6.10
2018-03-07T21:52:14.490Z,2.20
2018-03-07T21:54:42.709Z,1.80
2018-03-07T21:57:10.213Z,1.60
2018-03-07T21:59:37.693Z,1.27
2018-03-07T22:02:05.171Z,1.40
2018-03-07T22:04:33.380Z,1.50
2018-03-07T22:07:00.828Z,1.27
2018-03-07T22:09:28.324Z,1.20
2018-03-07T22:11:55.755Z,1.40
2018-03-07T22:14:23.200Z,1.50
2018-03-07T22:16:50.630Z,1.50
2018-03-07T22:19:18.865Z,1.40
2018-03-07T22:21:46.296Z,1.30
2018-03-07T22:24:13.831Z,1.23
2018-03-07T22:26:41.277Z,1.30
2018-03-07T22:29:09.476Z,1.23
2018-03-07T22:31:37.682Z,1.37
2018-03-07T22:34:05.880Z,1.60
2018-03-07T22:36:34.079Z,1.33
2018-03-07T22:39:02.312Z,1.50
2018-03-07T22:41:29.743Z,2.10
2018-03-07T22:43:57.935Z,2.25
2018-03-07T22:46:25.380Z,1.80
2018-03-07T22:48:52.818Z,1.77
2018-03-07T22:51:21.036Z,1.40
2018-03-07T22:53:48.472Z,1.50
2018-03-07T22:56:15.907Z,1.50
2018-03-07T22:58:43.392Z,1.30
2018-03-07T23:01:10.864Z,1.33
2018-03-07T23:03:38.297Z,1.50
2018-03-07T23:06:05.748Z,1.60
2018-03-07T23:08:33.184Z,1.80
2018-03-07T23:11:00.625Z,1.27
2018-03-07T23:13:28.059Z,1.33
2018-03-07T23:15:55.497Z,1.85
2018-03-07T23:18:23.035Z,1.20
2018-03-07T23:20:50.528Z,1.55
2018-03-07T23:23:17.970Z,1.70
2018-03-07T23:25:46.191Z,2.00
2018-03-07T23:28:13.632Z,2.00
2018-03-07T23:30:41.860Z,1.60
2018-03-07T23:33:09.364Z,1.95
2018-03-07T23:35:36.791Z,2.20
2018-03-07T23:38:04.332Z,2.20
2018-03-07T23:40:32.541Z,1.92
2018-03-07T23:42:59.995Z,1.40
2018-03-07T23:45:27.480Z,1.30
2018-03-07T23:47:54.924Z,1.35
2018-03-07T23:50:23.133Z,1.48
2018-03-07T23:52:51.340Z,1.58
2018-03-07T23:55:18.844Z,1.50
2018-03-07T23:57:46.333Z,1.60
